sensor_id;sensor_type;location;lat;lon;timestamp;P1;durP1;ratioP1;P2;durP2;ratioP2
6983;SDS011;3532;51.118;7.210;2022-07-23T00:00:28;27.60;;;23.70;;
6983;SDS011;3532;51.118;7.210;2022-07-23T00:02:53;27.57;;;23.67;;
6983;SDS011;3532;51.118;7.210;2022-07-23T00:05:19;25.43;;;22.37;;
6983;SDS011;3532;51.118;7.210;2022-07-23T00:07:46;35.23;;;25.10;;
6983;SDS011;3532;51.118;7.210;2022-07-23T00:10:11;28.10;;;23.80;;
6983;SDS011;3532;51.118;7.210;2022-07-23T00:12:37;27.43;;;23.43;;
6983;SDS011;3532;51.118;7.210;2022-07-23T00:15:04;25.27;;;21.93;;
6983;SDS011;3532;51.118;7.210;2022-07-23T00:17:30;26.37;;;22.77;;
6983;SDS011;3532;51.118;7.210;2022-07-23T00:19:55;23.03;;;20.27;;
6983;SDS011;3532;51.118;7.210;2022-07-23T00:22:20;24.00;;;19.80;;
6983;SDS011;3532;51.118;7.210;2022-07-23T00:24:46;23.93;;;19.70;;
6983;SDS011;3532;51.118;7.210;2022-07-23T00:27:11;27.53;;;21.03;;
6983;SDS011;3532;51.118;7.210;2022-07-23T00:29:36;23.13;;;18.47;;
6983;SDS011;3532;51.118;7.210;2022-07-23T00:32:02;24.60;;;18.87;;
6983;SDS011;3532;51.118;7.210;2022-07-23T00:34:27;25.37;;;21.40;;
6983;SDS011;3532;51.118;7.210;2022-07-23T00:36:52;25.77;;;19.97;;
6983;SDS011;3532;51.118;7.210;2022-07-23T00:39:19;24.20;;;20.13;;
6983;SDS011;3532;51.118;7.210;2022-07-23T00:41:46;22.53;;;19.83;;
6983;SDS011;3532;51.118;7.210;2022-07-23T00:44:24;23.57;;;19.83;;
6983;SDS011;3532;51.118;7.210;2022-07-23T00:46:54;22.87;;;18.97;;
6983;SDS011;3532;51.118;7.210;2022-07-23T00:49:21;19.17;;;17.13;;
6983;SDS011;3532;51.118;7.210;2022-07-23T00:51:48;20.10;;;16.23;;
6983;SDS011;3532;51.118;7.210;2022-07-23T00:54:14;17.40;;;15.50;;
6983;SDS011;3532;51.118;7.210;2022-07-23T00:56:40;16.93;;;14.90;;
6983;SDS011;3532;51.118;7.210;2022-07-23T00:59:06;17.53;;;15.73;;
6983;SDS011;3532;51.118;7.210;2022-07-23T01:01:32;23.27;;;17.13;;
6983;SDS011;3532;51.118;7.210;2022-07-23T01:03:57;19.63;;;15.77;;
6983;SDS011;3532;51.118;7.210;2022-07-23T01:06:23;20.23;;;15.67;;
6983;SDS011;3532;51.118;7.210;2022-07-23T01:08:48;17.50;;;14.77;;
6983;SDS011;3532;51.118;7.210;2022-07-23T01:11:13;22.23;;;16.30;;
6983;SDS011;3532;51.118;7.210;2022-07-23T01:13:42;17.43;;;15.37;;
6983;SDS011;3532;51.118;7.210;2022-07-23T01:16:07;20.03;;;16.37;;
6983;SDS011;3532;51.118;7.210;2022-07-23T01:18:33;17.63;;;15.57;;
6983;SDS011;3532;51.118;7.210;2022-07-23T01:20:58;17.73;;;15.87;;
6983;SDS011;3532;51.118;7.210;2022-07-23T01:23:23;18.07;;;15.13;;
6983;SDS011;3532;51.118;7.210;2022-07-23T01:25:49;18.97;;;16.47;;
6983;SDS011;3532;51.118;7.210;2022-07-23T01:28:17;19.43;;;16.23;;
6983;SDS011;3532;51.118;7.210;2022-07-23T01:30:42;18.53;;;16.23;;
6983;SDS011;3532;51.118;7.210;2022-07-23T01:33:08;20.00;;;15.93;;
6983;SDS011;3532;51.118;7.210;2022-07-23T01:35:33;17.33;;;15.43;;
6983;SDS011;3532;51.118;7.210;2022-07-23T01:37:59;17.77;;;14.90;;
6983;SDS011;3532;51.118;7.210;2022-07-23T01:40:24;20.17;;;15.70;;
6983;SDS011;3532;51.118;7.210;2022-07-23T01:42:49;18.30;;;16.00;;
6983;SDS011;3532;51.118;7.210;2022-07-23T01:45:14;21.97;;;16.57;;
6983;SDS011;3532;51.118;7.210;2022-07-23T01:47:40;18.67;;;16.57;;
6983;SDS011;3532;51.118;7.210;2022-07-23T01:50:05;18.70;;;15.63;;
6983;SDS011;3532;51.118;7.210;2022-07-23T01:52:31;19.87;;;16.23;;
6983;SDS011;3532;51.118;7.210;2022-07-23T01:54:56;17.13;;;15.17;;
6983;SDS011;3532;51.118;7.210;2022-07-23T01:57:22;20.97;;;16.63;;
6983;SDS011;3532;51.118;7.210;2022-07-23T01:59:47;21.60;;;17.10;;
6983;SDS011;3532;51.118;7.210;2022-07-23T02:02:12;19.23;;;15.83;;
6983;SDS011;3532;51.118;7.210;2022-07-23T02:04:38;20.03;;;17.07;;
6983;SDS011;3532;51.118;7.210;2022-07-23T02:07:03;20.57;;;17.23;;
6983;SDS011;3532;51.118;7.210;2022-07-23T02:09:29;20.57;;;16.63;;
6983;SDS011;3532;51.118;7.210;2022-07-23T02:11:55;16.80;;;15.03;;
6983;SDS011;3532;51.118;7.210;2022-07-23T02:14:20;17.73;;;14.17;;
6983;SDS011;3532;51.118;7.210;2022-07-23T02:16:45;17.50;;;15.53;;
6983;SDS011;3532;51.118;7.210;2022-07-23T02:19:11;17.10;;;14.67;;
6983;SDS011;3532;51.118;7.210;2022-07-23T02:21:36;18.00;;;14.87;;
6983;SDS011;3532;51.118;7.210;2022-07-23T02:24:01;17.00;;;14.53;;
6983;SDS011;3532;51.118;7.210;2022-07-23T02:26:27;16.70;;;14.83;;
6983;SDS011;3532;51.118;7.210;2022-07-23T02:28:52;18.20;;;14.47;;
6983;SDS011;3532;51.118;7.210;2022-07-23T02:31:18;16.00;;;14.33;;
6983;SDS011;3532;51.118;7.210;2022-07-23T02:33:43;16.10;;;13.43;;
6983;SDS011;3532;51.118;7.210;2022-07-23T02:36:08;16.67;;;12.97;;
6983;SDS011;3532;51.118;7.210;2022-07-23T02:38:34;17.47;;;13.30;;
6983;SDS011;3532;51.118;7.210;2022-07-23T02:40:59;16.67;;;13.60;;
6983;SDS011;3532;51.118;7.210;2022-07-23T02:43:24;20.07;;;14.47;;
6983;SDS011;3532;51.118;7.210;2022-07-23T02:45:50;14.87;;;13.00;;
6983;SDS011;3532;51.118;7.210;2022-07-23T02:48:15;15.53;;;13.13;;
6983;SDS011;3532;51.118;7.210;2022-07-23T02:50:40;14.73;;;13.23;;
6983;SDS011;3532;51.118;7.210;2022-07-23T02:53:05;14.80;;;13.20;;
6983;SDS011;3532;51.118;7.210;2022-07-23T02:55:31;13.53;;;11.93;;
6983;SDS011;3532;51.118;7.210;2022-07-23T02:57:56;11.23;;;10.13;;
6983;SDS011;3532;51.118;7.210;2022-07-23T03:00:22;20.97;;;14.20;;
6983;SDS011;3532;51.118;7.210;2022-07-23T03:02:47;14.50;;;13.00;;
6983;SDS011;3532;51.118;7.210;2022-07-23T03:05:12;16.50;;;14.03;;
6983;SDS011;3532;51.118;7.210;2022-07-23T03:07:38;15.13;;;13.50;;
6983;SDS011;3532;51.118;7.210;2022-07-23T03:10:03;15.97;;;14.23;;
6983;SDS011;3532;51.118;7.210;2022-07-23T03:12:28;16.83;;;14.97;;
6983;SDS011;3532;51.118;7.210;2022-07-23T03:14:54;15.17;;;13.57;;
6983;SDS011;3532;51.118;7.210;2022-07-23T03:17:19;15.33;;;13.83;;
6983;SDS011;3532;51.118;7.210;2022-07-23T03:19:44;21.30;;;14.30;;
6983;SDS011;3532;51.118;7.210;2022-07-23T03:22:10;28.87;;;14.87;;
6983;SDS011;3532;51.118;7.210;2022-07-23T03:24:35;13.90;;;12.60;;
6983;SDS011;3532;51.118;7.210;2022-07-23T03:27:19;30.50;;;14.17;;
6983;SDS011;3532;51.118;7.210;2022-07-23T03:29:44;14.27;;;10.47;;
6983;SDS011;3532;51.118;7.210;2022-07-23T03:32:09;45.37;;;13.97;;
6983;SDS011;3532;51.118;7.210;2022-07-23T03:34:35;21.37;;;11.63;;
6983;SDS011;3532;51.118;7.210;2022-07-23T03:37:00;10.43;;;9.43;;
6983;SDS011;3532;51.118;7.210;2022-07-23T03:39:26;9.00;;;8.13;;
6983;SDS011;3532;51.118;7.210;2022-07-23T03:41:51;10.63;;;8.27;;
6983;SDS011;3532;51.118;7.210;2022-07-23T03:44:16;10.33;;;9.40;;
6983;SDS011;3532;51.118;7.210;2022-07-23T03:46:41;11.90;;;8.93;;
6983;SDS011;3532;51.118;7.210;2022-07-23T03:49:07;28.20;;;9.40;;
6983;SDS011;3532;51.118;7.210;2022-07-23T03:51:32;28.00;;;10.30;;
6983;SDS011;3532;51.118;7.210;2022-07-23T03:53:57;20.87;;;10.23;;
6983;SDS011;3532;51.118;7.210;2022-07-23T03:56:23;19.20;;;10.60;;
6983;SDS011;3532;51.118;7.210;2022-07-23T03:58:48;28.80;;;11.33;;
6983;SDS011;3532;51.118;7.210;2022-07-23T04:01:13;11.80;;;10.60;;
6983;SDS011;3532;51.118;7.210;2022-07-23T04:03:39;11.30;;;10.20;;
6983;SDS011;3532;51.118;7.210;2022-07-23T04:06:05;11.47;;;10.30;;
6983;SDS011;3532;51.118;7.210;2022-07-23T04:08:30;12.40;;;11.20;;
6983;SDS011;3532;51.118;7.210;2022-07-23T04:10:56;14.27;;;11.63;;
6983;SDS011;3532;51.118;7.210;2022-07-23T04:13:21;13.80;;;10.77;;
6983;SDS011;3532;51.118;7.210;2022-07-23T04:15:46;11.63;;;10.53;;
6983;SDS011;3532;51.118;7.210;2022-07-23T04:18:12;11.93;;;10.73;;
6983;SDS011;3532;51.118;7.210;2022-07-23T04:20:37;11.60;;;10.40;;
6983;SDS011;3532;51.118;7.210;2022-07-23T04:23:02;11.83;;;9.67;;
6983;SDS011;3532;51.118;7.210;2022-07-23T04:25:28;14.63;;;9.27;;
6983;SDS011;3532;51.118;7.210;2022-07-23T04:27:53;8.13;;;7.43;;
6983;SDS011;3532;51.118;7.210;2022-07-23T04:30:18;15.00;;;8.90;;
6983;SDS011;3532;51.118;7.210;2022-07-23T04:32:44;31.00;;;9.27;;
6983;SDS011;3532;51.118;7.210;2022-07-23T04:35:09;22.20;;;7.50;;
6983;SDS011;3532;51.118;7.210;2022-07-23T04:37:34;8.07;;;7.33;;
6983;SDS011;3532;51.118;7.210;2022-07-23T04:39:59;10.77;;;9.23;;
6983;SDS011;3532;51.118;7.210;2022-07-23T04:42:25;15.77;;;8.47;;
6983;SDS011;3532;51.118;7.210;2022-07-23T04:44:50;8.10;;;7.40;;
6983;SDS011;3532;51.118;7.210;2022-07-23T04:47:16;8.80;;;8.00;;
6983;SDS011;3532;51.118;7.210;2022-07-23T04:49:41;7.77;;;7.07;;
6983;SDS011;3532;51.118;7.210;2022-07-23T04:52:06;6.97;;;6.37;;
6983;SDS011;3532;51.118;7.210;2022-07-23T04:54:32;7.17;;;6.23;;
6983;SDS011;3532;51.118;7.210;2022-07-23T04:56:57;6.93;;;6.33;;
6983;SDS011;3532;51.118;7.210;2022-07-23T04:59:22;6.17;;;5.67;;
6983;SDS011;3532;51.118;7.210;2022-07-23T05:01:48;6.23;;;5.63;;
6983;SDS011;3532;51.118;7.210;2022-07-23T05:04:13;5.97;;;5.43;;
6983;SDS011;3532;51.118;7.210;2022-07-23T05:06:38;6.87;;;6.17;;
6983;SDS011;3532;51.118;7.210;2022-07-23T05:09:04;7.77;;;5.63;;
6983;SDS011;3532;51.118;7.210;2022-07-23T05:11:29;5.47;;;5.07;;
6983;SDS011;3532;51.118;7.210;2022-07-23T05:13:54;5.47;;;5.00;;
6983;SDS011;3532;51.118;7.210;2022-07-23T05:16:20;7.50;;;6.87;;
6983;SDS011;3532;51.118;7.210;2022-07-23T05:18:45;7.17;;;6.47;;
6983;SDS011;3532;51.118;7.210;2022-07-23T05:21:10;6.90;;;6.30;;
6983;SDS011;3532;51.118;7.210;2022-07-23T05:23:35;9.87;;;8.33;;
6983;SDS011;3532;51.118;7.210;2022-07-23T05:26:01;10.27;;;9.27;;
6983;SDS011;3532;51.118;7.210;2022-07-23T05:28:26;9.63;;;8.73;;
6983;SDS011;3532;51.118;7.210;2022-07-23T05:30:51;10.90;;;9.10;;
6983;SDS011;3532;51.118;7.210;2022-07-23T05:33:20;9.87;;;8.40;;
6983;SDS011;3532;51.118;7.210;2022-07-23T05:35:46;8.33;;;7.27;;
6983;SDS011;3532;51.118;7.210;2022-07-23T05:38:11;8.10;;;7.30;;
6983;SDS011;3532;51.118;7.210;2022-07-23T05:40:36;7.70;;;7.00;;
6983;SDS011;3532;51.118;7.210;2022-07-23T05:43:01;7.10;;;6.40;;
6983;SDS011;3532;51.118;7.210;2022-07-23T05:45:27;7.33;;;6.30;;
6983;SDS011;3532;51.118;7.210;2022-07-23T05:47:52;7.37;;;6.67;;
6983;SDS011;3532;51.118;7.210;2022-07-23T05:50:17;7.47;;;5.93;;
6983;SDS011;3532;51.118;7.210;2022-07-23T05:52:43;6.87;;;6.20;;
6983;SDS011;3532;51.118;7.210;2022-07-23T05:55:09;6.83;;;6.13;;
6983;SDS011;3532;51.118;7.210;2022-07-23T05:57:35;7.97;;;7.17;;
6983;SDS011;3532;51.118;7.210;2022-07-23T06:00:00;8.13;;;7.43;;
6983;SDS011;3532;51.118;7.210;2022-07-23T06:02:27;9.03;;;7.03;;
6983;SDS011;3532;51.118;7.210;2022-07-23T06:04:52;7.60;;;6.93;;
6983;SDS011;3532;51.118;7.210;2022-07-23T06:07:17;8.20;;;7.40;;
6983;SDS011;3532;51.118;7.210;2022-07-23T06:09:43;9.10;;;7.23;;
6983;SDS011;3532;51.118;7.210;2022-07-23T06:12:08;7.53;;;6.80;;
6983;SDS011;3532;51.118;7.210;2022-07-23T06:14:33;8.97;;;6.90;;
6983;SDS011;3532;51.118;7.210;2022-07-23T06:16:59;7.67;;;6.87;;
6983;SDS011;3532;51.118;7.210;2022-07-23T06:19:24;9.80;;;8.43;;
6983;SDS011;3532;51.118;7.210;2022-07-23T06:21:50;10.33;;;8.53;;
6983;SDS011;3532;51.118;7.210;2022-07-23T06:24:15;10.40;;;9.43;;
6983;SDS011;3532;51.118;7.210;2022-07-23T06:26:40;10.50;;;9.50;;
6983;SDS011;3532;51.118;7.210;2022-07-23T06:29:06;10.63;;;9.63;;
6983;SDS011;3532;51.118;7.210;2022-07-23T06:31:31;11.43;;;10.23;;
6983;SDS011;3532;51.118;7.210;2022-07-23T06:33:56;10.93;;;9.90;;
6983;SDS011;3532;51.118;7.210;2022-07-23T06:36:22;11.10;;;9.93;;
6983;SDS011;3532;51.118;7.210;2022-07-23T06:38:47;12.10;;;10.80;;
6983;SDS011;3532;51.118;7.210;2022-07-23T06:41:12;12.37;;;10.87;;
6983;SDS011;3532;51.118;7.210;2022-07-23T06:43:37;13.77;;;10.93;;
6983;SDS011;3532;51.118;7.210;2022-07-23T06:46:03;12.10;;;9.67;;
6983;SDS011;3532;51.118;7.210;2022-07-23T06:48:28;11.77;;;10.50;;
6983;SDS011;3532;51.118;7.210;2022-07-23T06:50:54;11.90;;;10.70;;
6983;SDS011;3532;51.118;7.210;2022-07-23T06:53:20;11.83;;;10.63;;
6983;SDS011;3532;51.118;7.210;2022-07-23T06:55:45;12.17;;;10.87;;
6983;SDS011;3532;51.118;7.210;2022-07-23T06:58:11;11.67;;;9.70;;
6983;SDS011;3532;51.118;7.210;2022-07-23T07:00:36;11.67;;;9.80;;
6983;SDS011;3532;51.118;7.210;2022-07-23T07:03:01;10.63;;;9.53;;
6983;SDS011;3532;51.118;7.210;2022-07-23T07:05:27;10.63;;;9.53;;
6983;SDS011;3532;51.118;7.210;2022-07-23T07:07:53;12.83;;;10.60;;
6983;SDS011;3532;51.118;7.210;2022-07-23T07:10:21;10.53;;;9.43;;
6983;SDS011;3532;51.118;7.210;2022-07-23T07:12:47;9.73;;;8.73;;
6983;SDS011;3532;51.118;7.210;2022-07-23T07:15:12;12.50;;;8.53;;
6983;SDS011;3532;51.118;7.210;2022-07-23T07:17:37;10.43;;;7.47;;
6983;SDS011;3532;51.118;7.210;2022-07-23T07:20:03;10.67;;;8.20;;
6983;SDS011;3532;51.118;7.210;2022-07-23T07:22:29;10.20;;;8.90;;
6983;SDS011;3532;51.118;7.210;2022-07-23T07:24:54;9.40;;;8.20;;
6983;SDS011;3532;51.118;7.210;2022-07-23T07:27:20;11.30;;;8.13;;
6983;SDS011;3532;51.118;7.210;2022-07-23T07:29:45;9.17;;;7.67;;
6983;SDS011;3532;51.118;7.210;2022-07-23T07:32:11;12.10;;;7.30;;
6983;SDS011;3532;51.118;7.210;2022-07-23T07:34:36;9.00;;;7.40;;
6983;SDS011;3532;51.118;7.210;2022-07-23T07:37:01;9.90;;;8.43;;
6983;SDS011;3532;51.118;7.210;2022-07-23T07:39:26;9.83;;;8.17;;
6983;SDS011;3532;51.118;7.210;2022-07-23T07:41:52;8.33;;;7.53;;
6983;SDS011;3532;51.118;7.210;2022-07-23T07:44:17;9.90;;;8.37;;
6983;SDS011;3532;51.118;7.210;2022-07-23T07:46:42;9.93;;;9.00;;
6983;SDS011;3532;51.118;7.210;2022-07-23T07:49:08;8.77;;;7.87;;
6983;SDS011;3532;51.118;7.210;2022-07-23T07:51:33;9.63;;;8.63;;
6983;SDS011;3532;51.118;7.210;2022-07-23T07:54:00;11.03;;;8.67;;
6983;SDS011;3532;51.118;7.210;2022-07-23T07:56:25;9.27;;;8.37;;
6983;SDS011;3532;51.118;7.210;2022-07-23T07:58:50;9.83;;;8.83;;
6983;SDS011;3532;51.118;7.210;2022-07-23T08:01:16;9.43;;;8.30;;
6983;SDS011;3532;51.118;7.210;2022-07-23T08:03:42;11.47;;;9.03;;
6983;SDS011;3532;51.118;7.210;2022-07-23T08:06:07;9.50;;;8.43;;
6983;SDS011;3532;51.118;7.210;2022-07-23T08:08:32;9.90;;;8.90;;
6983;SDS011;3532;51.118;7.210;2022-07-23T08:10:58;11.50;;;10.23;;
6983;SDS011;3532;51.118;7.210;2022-07-23T08:13:23;9.27;;;8.37;;
6983;SDS011;3532;51.118;7.210;2022-07-23T08:15:48;10.13;;;8.93;;
6983;SDS011;3532;51.118;7.210;2022-07-23T08:18:14;10.07;;;8.93;;
6983;SDS011;3532;51.118;7.210;2022-07-23T08:20:40;10.50;;;9.27;;
6983;SDS011;3532;51.118;7.210;2022-07-23T08:23:06;11.47;;;9.10;;
6983;SDS011;3532;51.118;7.210;2022-07-23T08:25:33;9.87;;;8.23;;
6983;SDS011;3532;51.118;7.210;2022-07-23T08:28:01;9.20;;;8.00;;
6983;SDS011;3532;51.118;7.210;2022-07-23T08:30:28;9.07;;;8.20;;
6983;SDS011;3532;51.118;7.210;2022-07-23T08:32:55;10.03;;;9.00;;
6983;SDS011;3532;51.118;7.210;2022-07-23T08:37:54;11.80;;;9.37;;
6983;SDS011;3532;51.118;7.210;2022-07-23T08:40:21;9.13;;;8.30;;
6983;SDS011;3532;51.118;7.210;2022-07-23T08:42:50;9.57;;;8.67;;
6983;SDS011;3532;51.118;7.210;2022-07-23T08:45:17;12.63;;;9.73;;
6983;SDS011;3532;51.118;7.210;2022-07-23T08:47:45;9.13;;;7.97;;
6983;SDS011;3532;51.118;7.210;2022-07-23T08:50:24;8.60;;;7.30;;
6983;SDS011;3532;51.118;7.210;2022-07-23T08:52:49;10.27;;;7.73;;
6983;SDS011;3532;51.118;7.210;2022-07-23T08:55:16;8.60;;;7.80;;
6983;SDS011;3532;51.118;7.210;2022-07-23T08:57:47;9.20;;;7.27;;
6983;SDS011;3532;51.118;7.210;2022-07-23T09:00:13;7.80;;;7.10;;
6983;SDS011;3532;51.118;7.210;2022-07-23T09:02:40;8.03;;;7.27;;
6983;SDS011;3532;51.118;7.210;2022-07-23T09:05:06;8.13;;;7.30;;
6983;SDS011;3532;51.118;7.210;2022-07-23T09:07:32;8.43;;;7.63;;
6983;SDS011;3532;51.118;7.210;2022-07-23T09:10:10;8.77;;;7.97;;
6983;SDS011;3532;51.118;7.210;2022-07-23T09:12:36;8.33;;;7.40;;
6983;SDS011;3532;51.118;7.210;2022-07-23T09:15:03;11.00;;;8.43;;
6983;SDS011;3532;51.118;7.210;2022-07-23T09:17:36;9.47;;;8.57;;
6983;SDS011;3532;51.118;7.210;2022-07-23T09:20:12;9.33;;;8.43;;
6983;SDS011;3532;51.118;7.210;2022-07-23T09:22:40;8.07;;;7.33;;
6983;SDS011;3532;51.118;7.210;2022-07-23T09:25:11;9.10;;;8.20;;
6983;SDS011;3532;51.118;7.210;2022-07-23T09:27:45;8.87;;;8.07;;
6983;SDS011;3532;51.118;7.210;2022-07-23T09:30:12;10.67;;;8.10;;
6983;SDS011;3532;51.118;7.210;2022-07-23T09:32:38;9.13;;;6.90;;
6983;SDS011;3532;51.118;7.210;2022-07-23T09:35:04;9.50;;;8.53;;
6983;SDS011;3532;51.118;7.210;2022-07-23T09:37:29;8.70;;;7.80;;
6983;SDS011;3532;51.118;7.210;2022-07-23T09:40:02;9.20;;;8.20;;
6983;SDS011;3532;51.118;7.210;2022-07-23T09:42:29;9.33;;;8.43;;
6983;SDS011;3532;51.118;7.210;2022-07-23T09:44:55;9.70;;;8.70;;
6983;SDS011;3532;51.118;7.210;2022-07-23T09:47:23;8.50;;;7.70;;
6983;SDS011;3532;51.118;7.210;2022-07-23T09:49:59;7.97;;;7.27;;
6983;SDS011;3532;51.118;7.210;2022-07-23T09:52:29;7.60;;;6.80;;
6983;SDS011;3532;51.118;7.210;2022-07-23T09:55:00;8.83;;;7.90;;
6983;SDS011;3532;51.118;7.210;2022-07-23T09:57:26;7.37;;;6.67;;
6983;SDS011;3532;51.118;7.210;2022-07-23T09:59:52;10.40;;;9.30;;
6983;SDS011;3532;51.118;7.210;2022-07-23T10:02:17;12.67;;;9.23;;
6983;SDS011;3532;51.118;7.210;2022-07-23T10:04:43;9.60;;;8.70;;
6983;SDS011;3532;51.118;7.210;2022-07-23T10:07:09;9.43;;;8.63;;
6983;SDS011;3532;51.118;7.210;2022-07-23T10:09:38;11.77;;;10.60;;
6983;SDS011;3532;51.118;7.210;2022-07-23T10:12:05;9.03;;;8.13;;
6983;SDS011;3532;51.118;7.210;2022-07-23T10:14:38;9.03;;;8.10;;
6983;SDS011;3532;51.118;7.210;2022-07-23T10:17:04;8.20;;;7.50;;
6983;SDS011;3532;51.118;7.210;2022-07-23T10:19:30;7.70;;;7.00;;
6983;SDS011;3532;51.118;7.210;2022-07-23T10:22:03;10.00;;;9.00;;
6983;SDS011;3532;51.118;7.210;2022-07-23T10:30:03;8.67;;;7.77;;
6983;SDS011;3532;51.118;7.210;2022-07-23T10:32:45;7.73;;;7.13;;
6983;SDS011;3532;51.118;7.210;2022-07-23T10:37:47;6.40;;;5.80;;
6983;SDS011;3532;51.118;7.210;2022-07-23T10:40:15;6.37;;;5.83;;
6983;SDS011;3532;51.118;7.210;2022-07-23T10:42:43;5.90;;;5.40;;
6983;SDS011;3532;51.118;7.210;2022-07-23T10:47:49;6.93;;;6.33;;
6983;SDS011;3532;51.118;7.210;2022-07-23T10:50:29;6.50;;;5.90;;
6983;SDS011;3532;51.118;7.210;2022-07-23T10:57:56;5.60;;;5.20;;
6983;SDS011;3532;51.118;7.210;2022-07-23T11:00:22;6.07;;;5.57;;
6983;SDS011;3532;51.118;7.210;2022-07-23T11:02:50;5.80;;;5.30;;
6983;SDS011;3532;51.118;7.210;2022-07-23T11:05:19;6.60;;;5.10;;
6983;SDS011;3532;51.118;7.210;2022-07-23T11:32:01;7.07;;;4.53;;
6983;SDS011;3532;51.118;7.210;2022-07-23T11:37:09;4.43;;;4.03;;
6983;SDS011;3532;51.118;7.210;2022-07-23T11:39:36;5.03;;;4.50;;
6983;SDS011;3532;51.118;7.210;2022-07-23T11:42:02;5.43;;;4.93;;
6983;SDS011;3532;51.118;7.210;2022-07-23T11:44:33;5.97;;;5.07;;
6983;SDS011;3532;51.118;7.210;2022-07-23T11:47:00;5.90;;;5.40;;
6983;SDS011;3532;51.118;7.210;2022-07-23T11:49:29;4.90;;;4.57;;
6983;SDS011;3532;51.118;7.210;2022-07-23T11:52:09;4.83;;;4.40;;
6983;SDS011;3532;51.118;7.210;2022-07-23T11:54:37;5.27;;;4.87;;
6983;SDS011;3532;51.118;7.210;2022-07-23T11:57:25;5.60;;;5.10;;
6983;SDS011;3532;51.118;7.210;2022-07-23T11:59:53;4.80;;;4.00;;
6983;SDS011;3532;51.118;7.210;2022-07-23T12:02:21;5.37;;;4.17;;
6983;SDS011;3532;51.118;7.210;2022-07-23T12:04:47;4.70;;;4.30;;
6983;SDS011;3532;51.118;7.210;2022-07-23T12:07:34;5.07;;;4.53;;
6983;SDS011;3532;51.118;7.210;2022-07-23T12:10:11;6.13;;;5.63;;
6983;SDS011;3532;51.118;7.210;2022-07-23T12:12:47;5.10;;;4.60;;
6983;SDS011;3532;51.118;7.210;2022-07-23T12:15:14;5.87;;;5.33;;
6983;SDS011;3532;51.118;7.210;2022-07-23T12:17:41;6.10;;;5.50;;
6983;SDS011;3532;51.118;7.210;2022-07-23T12:20:08;4.70;;;4.30;;
6983;SDS011;3532;51.118;7.210;2022-07-23T12:22:39;5.00;;;4.53;;
6983;SDS011;3532;51.118;7.210;2022-07-23T12:25:16;5.70;;;5.30;;
6983;SDS011;3532;51.118;7.210;2022-07-23T12:27:42;7.53;;;5.20;;
6983;SDS011;3532;51.118;7.210;2022-07-23T12:30:19;7.47;;;6.20;;
6983;SDS011;3532;51.118;7.210;2022-07-23T12:32:46;5.70;;;5.30;;
6983;SDS011;3532;51.118;7.210;2022-07-23T12:35:12;5.37;;;4.87;;
6983;SDS011;3532;51.118;7.210;2022-07-23T12:37:39;6.33;;;5.70;;
6983;SDS011;3532;51.118;7.210;2022-07-23T12:40:27;6.13;;;5.63;;
6983;SDS011;3532;51.118;7.210;2022-07-23T12:43:03;5.90;;;5.30;;
6983;SDS011;3532;51.118;7.210;2022-07-23T12:45:42;6.33;;;5.80;;
6983;SDS011;3532;51.118;7.210;2022-07-23T12:48:08;6.50;;;5.10;;
6983;SDS011;3532;51.118;7.210;2022-07-23T12:53:09;7.87;;;6.60;;
6983;SDS011;3532;51.118;7.210;2022-07-23T12:55:36;6.50;;;5.90;;
6983;SDS011;3532;51.118;7.210;2022-07-23T12:58:06;6.27;;;5.60;;
6983;SDS011;3532;51.118;7.210;2022-07-23T13:01:01;5.83;;;5.33;;
6983;SDS011;3532;51.118;7.210;2022-07-23T13:03:29;6.63;;;6.03;;
6983;SDS011;3532;51.118;7.210;2022-07-23T13:05:57;6.60;;;5.53;;
6983;SDS011;3532;51.118;7.210;2022-07-23T13:08:24;6.63;;;5.93;;
6983;SDS011;3532;51.118;7.210;2022-07-23T13:10:49;5.87;;;5.37;;
6983;SDS011;3532;51.118;7.210;2022-07-23T13:13:16;6.30;;;5.80;;
6983;SDS011;3532;51.118;7.210;2022-07-23T13:15:44;6.40;;;5.60;;
6983;SDS011;3532;51.118;7.210;2022-07-23T13:18:10;6.93;;;6.33;;
6983;SDS011;3532;51.118;7.210;2022-07-23T13:20:35;6.87;;;6.27;;
6983;SDS011;3532;51.118;7.210;2022-07-23T13:23:01;8.90;;;6.97;;
6983;SDS011;3532;51.118;7.210;2022-07-23T13:25:27;8.60;;;7.90;;
6983;SDS011;3532;51.118;7.210;2022-07-23T13:27:52;8.27;;;7.47;;
6983;SDS011;3532;51.118;7.210;2022-07-23T13:30:17;8.23;;;7.53;;
6983;SDS011;3532;51.118;7.210;2022-07-23T13:32:43;7.83;;;7.10;;
6983;SDS011;3532;51.118;7.210;2022-07-23T13:35:08;6.27;;;5.60;;
6983;SDS011;3532;51.118;7.210;2022-07-23T13:37:34;5.63;;;5.10;;
6983;SDS011;3532;51.118;7.210;2022-07-23T13:39:59;7.97;;;4.60;;
6983;SDS011;3532;51.118;7.210;2022-07-23T13:42:24;6.03;;;5.43;;
6983;SDS011;3532;51.118;7.210;2022-07-23T13:44:50;7.87;;;6.47;;
6983;SDS011;3532;51.118;7.210;2022-07-23T13:47:15;6.47;;;5.43;;
6983;SDS011;3532;51.118;7.210;2022-07-23T13:49:40;6.60;;;6.00;;
6983;SDS011;3532;51.118;7.210;2022-07-23T13:52:06;5.93;;;5.43;;
6983;SDS011;3532;51.118;7.210;2022-07-23T13:54:31;6.77;;;5.43;;
6983;SDS011;3532;51.118;7.210;2022-07-23T13:56:56;6.70;;;6.17;;
6983;SDS011;3532;51.118;7.210;2022-07-23T13:59:22;7.17;;;5.30;;
6983;SDS011;3532;51.118;7.210;2022-07-23T14:01:47;6.07;;;5.57;;
6983;SDS011;3532;51.118;7.210;2022-07-23T14:04:13;6.90;;;5.57;;
6983;SDS011;3532;51.118;7.210;2022-07-23T14:06:38;6.43;;;5.73;;
6983;SDS011;3532;51.118;7.210;2022-07-23T14:09:04;5.43;;;4.93;;
6983;SDS011;3532;51.118;7.210;2022-07-23T14:11:29;5.27;;;4.77;;
6983;SDS011;3532;51.118;7.210;2022-07-23T14:13:56;6.20;;;5.50;;
6983;SDS011;3532;51.118;7.210;2022-07-23T14:16:21;5.57;;;4.70;;
6983;SDS011;3532;51.118;7.210;2022-07-23T14:18:47;4.83;;;4.37;;
6983;SDS011;3532;51.118;7.210;2022-07-23T14:21:12;4.87;;;4.47;;
6983;SDS011;3532;51.118;7.210;2022-07-23T14:23:37;5.10;;;4.60;;
6983;SDS011;3532;51.118;7.210;2022-07-23T14:26:03;8.90;;;4.73;;
6983;SDS011;3532;51.118;7.210;2022-07-23T14:28:28;8.80;;;5.10;;
6983;SDS011;3532;51.118;7.210;2022-07-23T14:30:53;4.90;;;4.40;;
6983;SDS011;3532;51.118;7.210;2022-07-23T14:33:19;4.97;;;4.47;;
6983;SDS011;3532;51.118;7.210;2022-07-23T14:35:45;5.37;;;3.83;;
6983;SDS011;3532;51.118;7.210;2022-07-23T14:38:10;5.23;;;4.30;;
6983;SDS011;3532;51.118;7.210;2022-07-23T14:40:36;6.60;;;4.10;;
6983;SDS011;3532;51.118;7.210;2022-07-23T14:43:01;6.37;;;3.70;;
6983;SDS011;3532;51.118;7.210;2022-07-23T14:45:27;5.47;;;3.93;;
6983;SDS011;3532;51.118;7.210;2022-07-23T14:47:54;4.07;;;3.30;;
6983;SDS011;3532;51.118;7.210;2022-07-23T14:50:19;5.63;;;3.50;;
6983;SDS011;3532;51.118;7.210;2022-07-23T14:52:45;4.97;;;3.60;;
6983;SDS011;3532;51.118;7.210;2022-07-23T14:55:10;4.70;;;4.30;;
6983;SDS011;3532;51.118;7.210;2022-07-23T14:57:35;4.10;;;3.33;;
6983;SDS011;3532;51.118;7.210;2022-07-23T15:00:01;3.73;;;3.30;;
6983;SDS011;3532;51.118;7.210;2022-07-23T15:02:27;3.43;;;3.13;;
6983;SDS011;3532;51.118;7.210;2022-07-23T15:04:53;4.07;;;3.43;;
6983;SDS011;3532;51.118;7.210;2022-07-23T15:07:18;4.33;;;3.93;;
6983;SDS011;3532;51.118;7.210;2022-07-23T15:09:43;3.70;;;3.37;;
6983;SDS011;3532;51.118;7.210;2022-07-23T15:12:09;4.63;;;3.47;;
6983;SDS011;3532;51.118;7.210;2022-07-23T15:14:34;4.30;;;3.60;;
6983;SDS011;3532;51.118;7.210;2022-07-23T15:16:59;3.83;;;3.47;;
6983;SDS011;3532;51.118;7.210;2022-07-23T15:19:25;3.50;;;3.20;;
6983;SDS011;3532;51.118;7.210;2022-07-23T15:21:50;3.10;;;2.90;;
6983;SDS011;3532;51.118;7.210;2022-07-23T15:24:15;3.93;;;3.40;;
6983;SDS011;3532;51.118;7.210;2022-07-23T15:26:40;4.60;;;3.53;;
6983;SDS011;3532;51.118;7.210;2022-07-23T15:29:06;4.00;;;3.60;;
6983;SDS011;3532;51.118;7.210;2022-07-23T15:31:31;4.40;;;3.87;;
6983;SDS011;3532;51.118;7.210;2022-07-23T15:33:57;3.83;;;3.30;;
6983;SDS011;3532;51.118;7.210;2022-07-23T15:36:22;4.53;;;3.60;;
6983;SDS011;3532;51.118;7.210;2022-07-23T15:38:48;4.60;;;3.73;;
6983;SDS011;3532;51.118;7.210;2022-07-23T15:41:13;5.77;;;3.80;;
6983;SDS011;3532;51.118;7.210;2022-07-23T15:43:39;4.57;;;3.87;;
6983;SDS011;3532;51.118;7.210;2022-07-23T15:46:04;4.33;;;3.87;;
6983;SDS011;3532;51.118;7.210;2022-07-23T15:48:30;4.67;;;3.90;;